Big Pond, Massachusetts
Current Conditions -  °F | °C
As of 11:53 AM on Friday 31 Oct 2014 (Local Time) from KBAF Reporting Station
Overcast Overcast  
Wind Chill: 49°   Ceiling: 5000
Heat Index: 49°   Visibility: 10mi
Dew Point: 36°   Wind: 3mph
Humidity: 61%   Direction: 10°N
Pressure: 30.01"   Gusts: NA
Location:  42.1613°N, 73.0508°W
Report Text: KBAF 311553Z 01003KT 10SM FEW027 OVC050 09/02 A3001 RMK AO2 SLP167 T00940022
Loading
Personal Weather Stations






























Interactive Weather Map
Tropical Storm Tracking
New forecast layout! Learn more

10-Day Weather Forecast

Advertisements
Track Severe Weather on mobile